Airfield :
LOGIN :

Register | Disclaimer

   EN    FR    IT 

 










Legend :    VFR   Marginal VFR   IFR   Intensive IFR   Very Intensive IFR
Visi :
Ceiling :
>= 8 km
>= 3000ft
5 to 8 km
1000 to 3000 ft
1500m to 5 km
500 to 1000 ft
800 to 1500m
200 to 500 ft
< 800m
< 200 ft
Symbols :   Thunderstorms  Fog  Heavy snow  Heavy precipitations  Wind > 20 kt
SIGMETs :     Misc.  Thunderstorms  Icing  Turbulence  Mountain Waves  Volcanic Ashes






- Airport Elevation : 40 ft
- IATA code : RMI


LIPR - Federico Fellini Int. Rimini

CURRENT METAR :
  • 182120Z AUTO 11001KT 1000 R31/P1500N BR BKN034/// 10/09 Q1024

EXPIRED METARs :
  • 182050Z AUTO VRB01KT 1400 R31/P1500N BR OVC032/// 10/09 Q1024
  • 182020Z AUTO 17002KT 1600 BR OVC030/// 10/09 Q1024
  • 181950Z AUTO 18002KT 1700 BR BKN026/// 11/09 Q1024
  • 181920Z AUTO 20004KT 180V240 2000 BR BKN028/// 11/10 Q1024
  • 181850Z AUTO 22003KT 2300 BR OVC028/// 11/09 Q1024

TAF TAF LIPR
Valid from the 18 at 18:00 until the 19 at 03:00 UTC


181700Z 1818/1903 VRB05KT 2000 BR DZ SCT030 BKN060



MET'MAP, your aeronautical weather chart ! - Copyright ORBIFLY December 2007 - Disclaimer

ORBIFLY MET'MAP TEAM :

Programming & Development : Alexandra Zaïnal
Concept & original design : Baudouin d'Aumeries
Assistance for programming : Marc-Olivier Méhu
Technical & hardware support : Manuel Goepfert

Contact : metmap@orbifly.com




SOURCES & CREDITS :

   NOAA